LFBH

La Rochelle-Île de Ré Airport

La Rochelle/Île de Ré, France
TAF LFBH 191700Z 1918/2018 06015KT CAVOK BECMG 1923/2001 BKN012 TEMPO 2001/2010 OVC008 BECMG 2010/2012 08010KT BKN020
Issued Valid From Valid To
Nov-19 @ 17:00 UTC
(5 hours ago)
Nov-19 @ 18:00 UTC
(4 hours ago)
Nov-20 @ 18:00 UTC
(in 20 hours)
Nov-19 @ 18:00 to Nov-19 @ 23:00
TAF LFBH 191700Z 1918/2018 06015KT CAVOK
Wind Visibility Clouds Conditions
60° at 15 knots 10,000+ meters
  • No significant clouds
Becoming Nov-19 @ 23:00 to Nov-20 @ 10:00
BECMG 1923/2001 BKN012
Wind Visibility Clouds Conditions
60° at 15 knots 10,000+ meters
  • Broken at 1,200' AGL
Temporary Nov-20 @ 01:00 to Nov-20 @ 10:00
TEMPO 2001/2010 OVC008
Clouds
  • Overcast at 800' AGL
Becoming Nov-20 @ 10:00 to Nov-20 @ 18:00
BECMG 2010/2012 08010KT BKN020
Wind Visibility Clouds Conditions
80° at 10 knots 10,000+ meters
  • Broken at 2,000' AGL
TAF LFBH 191700Z 1918/2018 06015KT CAVOK BECMG 1923/2001 BKN012 TEMPO 2001/2010 OVC008 BECMG 2010/2012 08010KT BKN020
Issued Nov-19 @ 17:00 UTC
(5 hours ago)
Valid From Nov-19 @ 18:00 UTC
(4 hours ago)
Valid To Nov-20 @ 18:00 UTC
(in 20 hours)
Nov-19 @ 18:00 - Nov-19 @ 23:00
Wind Visibility
60° at 15 knots 10,000+ meters
Clouds
  • No significant clouds
Conditions
Becoming Nov-19 @ 23:00 - Nov-20 @ 10:00
Wind Visibility
60° at 15 knots 10,000+ meters
Clouds
  • Broken at 1,200' AGL
Conditions
Temporary Nov-20 @ 01:00 - Nov-20 @ 10:00
Clouds
  • Overcast at 800' AGL
Becoming Nov-20 @ 10:00 - Nov-20 @ 18:00
Wind Visibility
80° at 10 knots 10,000+ meters
Clouds
  • Broken at 2,000' AGL
Conditions